sensor_id;sensor_type;location;lat;lon;timestamp;temperature;humidity
25250;DHT22;13201;51.148;13.738;2022-10-17T00:00:26;15.50;99.90
25250;DHT22;13201;51.148;13.738;2022-10-17T00:02:54;15.60;99.90
25250;DHT22;13201;51.148;13.738;2022-10-17T00:05:20;15.50;99.90
25250;DHT22;13201;51.148;13.738;2022-10-17T00:07:46;15.50;99.90
25250;DHT22;13201;51.148;13.738;2022-10-17T00:10:11;15.30;99.90
25250;DHT22;13201;51.148;13.738;2022-10-17T00:12:37;15.30;99.90
25250;DHT22;13201;51.148;13.738;2022-10-17T00:15:05;15.30;99.90
25250;DHT22;13201;51.148;13.738;2022-10-17T00:17:31;15.30;99.90
25250;DHT22;13201;51.148;13.738;2022-10-17T00:19:59;15.20;99.90
25250;DHT22;13201;51.148;13.738;2022-10-17T00:22:25;15.20;99.90
25250;DHT22;13201;51.148;13.738;2022-10-17T00:24:50;15.30;99.90
25250;DHT22;13201;51.148;13.738;2022-10-17T00:27:16;15.30;99.90
25250;DHT22;13201;51.148;13.738;2022-10-17T00:29:42;15.10;99.90
25250;DHT22;13201;51.148;13.738;2022-10-17T00:32:07;15.00;99.90
25250;DHT22;13201;51.148;13.738;2022-10-17T00:34:33;15.00;99.90
25250;DHT22;13201;51.148;13.738;2022-10-17T00:36:58;15.10;99.90
25250;DHT22;13201;51.148;13.738;2022-10-17T00:39:24;15.00;99.90
25250;DHT22;13201;51.148;13.738;2022-10-17T00:41:50;14.90;99.90
25250;DHT22;13201;51.148;13.738;2022-10-17T00:47:03;14.90;99.90
25250;DHT22;13201;51.148;13.738;2022-10-17T00:49:32;15.00;99.90
25250;DHT22;13201;51.148;13.738;2022-10-17T00:52:02;14.90;99.90
25250;DHT22;13201;51.148;13.738;2022-10-17T00:54:34;14.80;99.90
25250;DHT22;13201;51.148;13.738;2022-10-17T00:57:01;14.80;99.90
25250;DHT22;13201;51.148;13.738;2022-10-17T00:59:28;14.80;99.90
25250;DHT22;13201;51.148;13.738;2022-10-17T01:02:15;14.70;99.90
25250;DHT22;13201;51.148;13.738;2022-10-17T01:04:44;14.80;99.90
25250;DHT22;13201;51.148;13.738;2022-10-17T01:31:44;13.40;99.90
25250;DHT22;13201;51.148;13.738;2022-10-17T01:34:19;13.20;99.90
25250;DHT22;13201;51.148;13.738;2022-10-17T01:37:01;13.20;99.90
25250;DHT22;13201;51.148;13.738;2022-10-17T01:42:16;13.40;99.90
25250;DHT22;13201;51.148;13.738;2022-10-17T01:44:57;13.50;99.90
25250;DHT22;13201;51.148;13.738;2022-10-17T01:47:29;13.50;99.90
25250;DHT22;13201;51.148;13.738;2022-10-17T01:50:10;13.60;99.90
25250;DHT22;13201;51.148;13.738;2022-10-17T01:53:13;13.70;99.90
25250;DHT22;13201;51.148;13.738;2022-10-17T01:55:43;13.80;99.90
25250;DHT22;13201;51.148;13.738;2022-10-17T01:58:23;13.90;99.90
25250;DHT22;13201;51.148;13.738;2022-10-17T02:00:52;13.90;99.90
25250;DHT22;13201;51.148;13.738;2022-10-17T02:03:19;13.90;99.90
25250;DHT22;13201;51.148;13.738;2022-10-17T02:05:45;13.80;99.90
25250;DHT22;13201;51.148;13.738;2022-10-17T02:08:11;13.80;99.90
25250;DHT22;13201;51.148;13.738;2022-10-17T02:13:22;14.10;99.90
25250;DHT22;13201;51.148;13.738;2022-10-17T02:16:11;14.20;99.90
25250;DHT22;13201;51.148;13.738;2022-10-17T02:24:06;13.90;99.90
25250;DHT22;13201;51.148;13.738;2022-10-17T02:29:42;14.00;99.90
25250;DHT22;13201;51.148;13.738;2022-10-17T02:32:15;14.00;99.90
25250;DHT22;13201;51.148;13.738;2022-10-17T02:34:49;14.10;99.90
25250;DHT22;13201;51.148;13.738;2022-10-17T02:37:21;14.20;99.90
25250;DHT22;13201;51.148;13.738;2022-10-17T02:39:48;14.20;99.90
25250;DHT22;13201;51.148;13.738;2022-10-17T02:42:15;14.20;99.90
25250;DHT22;13201;51.148;13.738;2022-10-17T02:44:43;14.20;99.90
25250;DHT22;13201;51.148;13.738;2022-10-17T02:47:17;14.20;99.90
25250;DHT22;13201;51.148;13.738;2022-10-17T02:49:51;14.10;99.90
25250;DHT22;13201;51.148;13.738;2022-10-17T02:52:38;14.10;99.90
25250;DHT22;13201;51.148;13.738;2022-10-17T02:55:15;14.10;99.90
25250;DHT22;13201;51.148;13.738;2022-10-17T02:57:55;14.00;99.90
25250;DHT22;13201;51.148;13.738;2022-10-17T03:00:22;14.00;99.90
25250;DHT22;13201;51.148;13.738;2022-10-17T03:02:50;14.10;99.90
25250;DHT22;13201;51.148;13.738;2022-10-17T03:05:28;14.20;99.90
25250;DHT22;13201;51.148;13.738;2022-10-17T03:07:55;14.20;99.90
25250;DHT22;13201;51.148;13.738;2022-10-17T03:10:21;14.20;99.90
25250;DHT22;13201;51.148;13.738;2022-10-17T03:12:47;14.10;99.90
25250;DHT22;13201;51.148;13.738;2022-10-17T03:15:13;14.10;99.90
25250;DHT22;13201;51.148;13.738;2022-10-17T03:17:39;14.00;99.90
25250;DHT22;13201;51.148;13.738;2022-10-17T03:20:05;14.00;99.90
25250;DHT22;13201;51.148;13.738;2022-10-17T03:22:31;14.00;99.90
25250;DHT22;13201;51.148;13.738;2022-10-17T03:24:57;14.10;99.90
25250;DHT22;13201;51.148;13.738;2022-10-17T03:27:23;14.10;99.90
25250;DHT22;13201;51.148;13.738;2022-10-17T03:29:49;14.00;99.90
25250;DHT22;13201;51.148;13.738;2022-10-17T03:32:14;14.20;99.90
25250;DHT22;13201;51.148;13.738;2022-10-17T03:34:40;14.20;99.90
25250;DHT22;13201;51.148;13.738;2022-10-17T03:37:06;14.30;99.90
25250;DHT22;13201;51.148;13.738;2022-10-17T03:39:31;14.30;99.90
25250;DHT22;13201;51.148;13.738;2022-10-17T03:41:57;14.10;99.90
25250;DHT22;13201;51.148;13.738;2022-10-17T03:44:22;14.00;99.90
25250;DHT22;13201;51.148;13.738;2022-10-17T03:46:48;14.10;99.90
25250;DHT22;13201;51.148;13.738;2022-10-17T03:49:14;14.10;99.90
25250;DHT22;13201;51.148;13.738;2022-10-17T03:51:39;14.10;99.90
25250;DHT22;13201;51.148;13.738;2022-10-17T03:54:05;14.20;99.90
25250;DHT22;13201;51.148;13.738;2022-10-17T03:56:30;14.20;99.90
25250;DHT22;13201;51.148;13.738;2022-10-17T03:58:56;14.00;99.90
25250;DHT22;13201;51.148;13.738;2022-10-17T04:01:22;13.90;99.90
25250;DHT22;13201;51.148;13.738;2022-10-17T04:03:52;14.00;99.90
25250;DHT22;13201;51.148;13.738;2022-10-17T04:06:19;14.00;99.90
25250;DHT22;13201;51.148;13.738;2022-10-17T04:08:45;14.00;99.90
25250;DHT22;13201;51.148;13.738;2022-10-17T04:11:16;13.80;99.90
25250;DHT22;13201;51.148;13.738;2022-10-17T04:13:42;13.80;99.90
25250;DHT22;13201;51.148;13.738;2022-10-17T04:16:14;13.90;99.90
25250;DHT22;13201;51.148;13.738;2022-10-17T04:18:40;14.10;99.90
25250;DHT22;13201;51.148;13.738;2022-10-17T04:21:07;14.10;99.90
25250;DHT22;13201;51.148;13.738;2022-10-17T04:23:33;14.20;99.90
25250;DHT22;13201;51.148;13.738;2022-10-17T04:26:00;14.20;99.90
25250;DHT22;13201;51.148;13.738;2022-10-17T04:28:26;14.30;99.90
25250;DHT22;13201;51.148;13.738;2022-10-17T04:31:06;14.30;99.90
25250;DHT22;13201;51.148;13.738;2022-10-17T04:33:32;14.30;99.90
25250;DHT22;13201;51.148;13.738;2022-10-17T04:36:00;14.30;99.90
25250;DHT22;13201;51.148;13.738;2022-10-17T04:38:27;14.30;99.90
25250;DHT22;13201;51.148;13.738;2022-10-17T04:40:53;14.40;99.90
25250;DHT22;13201;51.148;13.738;2022-10-17T04:43:19;14.40;99.90
25250;DHT22;13201;51.148;13.738;2022-10-17T04:45:44;14.50;99.90
25250;DHT22;13201;51.148;13.738;2022-10-17T04:48:10;14.40;99.90
25250;DHT22;13201;51.148;13.738;2022-10-17T04:50:36;14.40;99.90
25250;DHT22;13201;51.148;13.738;2022-10-17T04:53:01;14.40;99.90
25250;DHT22;13201;51.148;13.738;2022-10-17T04:55:27;14.40;99.90
25250;DHT22;13201;51.148;13.738;2022-10-17T04:57:53;14.40;99.90
25250;DHT22;13201;51.148;13.738;2022-10-17T05:00:19;14.30;99.90
25250;DHT22;13201;51.148;13.738;2022-10-17T05:02:44;14.30;99.90
25250;DHT22;13201;51.148;13.738;2022-10-17T05:05:10;14.40;99.90
25250;DHT22;13201;51.148;13.738;2022-10-17T05:07:39;14.50;99.90
25250;DHT22;13201;51.148;13.738;2022-10-17T05:10:05;14.50;99.90
25250;DHT22;13201;51.148;13.738;2022-10-17T05:12:31;14.50;99.90
25250;DHT22;13201;51.148;13.738;2022-10-17T05:14:57;14.50;99.90
25250;DHT22;13201;51.148;13.738;2022-10-17T05:17:23;14.50;99.90
25250;DHT22;13201;51.148;13.738;2022-10-17T05:19:49;14.50;99.90
25250;DHT22;13201;51.148;13.738;2022-10-17T05:22:14;14.60;99.90
25250;DHT22;13201;51.148;13.738;2022-10-17T05:24:40;14.50;99.90
25250;DHT22;13201;51.148;13.738;2022-10-17T05:27:05;14.60;99.90
25250;DHT22;13201;51.148;13.738;2022-10-17T05:29:31;14.60;99.90
25250;DHT22;13201;51.148;13.738;2022-10-17T05:31:58;14.60;99.90
25250;DHT22;13201;51.148;13.738;2022-10-17T05:34:24;14.70;99.90
25250;DHT22;13201;51.148;13.738;2022-10-17T05:36:49;14.70;99.90
25250;DHT22;13201;51.148;13.738;2022-10-17T05:39:15;14.60;99.90
25250;DHT22;13201;51.148;13.738;2022-10-17T05:41:44;14.70;99.90
25250;DHT22;13201;51.148;13.738;2022-10-17T05:44:10;14.80;99.90
25250;DHT22;13201;51.148;13.738;2022-10-17T05:46:36;14.80;99.90
25250;DHT22;13201;51.148;13.738;2022-10-17T05:49:01;14.80;99.90
25250;DHT22;13201;51.148;13.738;2022-10-17T05:51:27;14.90;99.90
25250;DHT22;13201;51.148;13.738;2022-10-17T05:53:52;14.90;99.90
25250;DHT22;13201;51.148;13.738;2022-10-17T05:56:18;14.90;99.90
25250;DHT22;13201;51.148;13.738;2022-10-17T05:58:44;15.00;99.90
25250;DHT22;13201;51.148;13.738;2022-10-17T06:01:11;15.00;99.90
25250;DHT22;13201;51.148;13.738;2022-10-17T06:03:37;15.00;99.90
25250;DHT22;13201;51.148;13.738;2022-10-17T06:06:07;15.00;99.90
25250;DHT22;13201;51.148;13.738;2022-10-17T06:08:33;15.00;99.90
25250;DHT22;13201;51.148;13.738;2022-10-17T06:10:59;15.10;99.90
25250;DHT22;13201;51.148;13.738;2022-10-17T06:13:25;15.10;99.90
25250;DHT22;13201;51.148;13.738;2022-10-17T06:15:51;15.20;99.90
25250;DHT22;13201;51.148;13.738;2022-10-17T06:18:16;15.20;99.90
25250;DHT22;13201;51.148;13.738;2022-10-17T06:20:42;15.20;99.90
25250;DHT22;13201;51.148;13.738;2022-10-17T06:23:08;15.20;99.90
25250;DHT22;13201;51.148;13.738;2022-10-17T06:25:33;15.30;99.90
25250;DHT22;13201;51.148;13.738;2022-10-17T06:27:59;15.20;99.90
25250;DHT22;13201;51.148;13.738;2022-10-17T06:30:25;15.30;99.90
25250;DHT22;13201;51.148;13.738;2022-10-17T06:32:51;15.40;99.90
25250;DHT22;13201;51.148;13.738;2022-10-17T06:35:17;15.40;99.90
25250;DHT22;13201;51.148;13.738;2022-10-17T06:37:43;15.50;99.90
25250;DHT22;13201;51.148;13.738;2022-10-17T06:40:09;15.40;99.90
25250;DHT22;13201;51.148;13.738;2022-10-17T06:42:37;15.50;99.90
25250;DHT22;13201;51.148;13.738;2022-10-17T06:45:04;15.50;99.90
25250;DHT22;13201;51.148;13.738;2022-10-17T06:47:29;15.60;99.90
25250;DHT22;13201;51.148;13.738;2022-10-17T06:49:55;15.60;99.90
25250;DHT22;13201;51.148;13.738;2022-10-17T06:52:21;15.60;99.90
25250;DHT22;13201;51.148;13.738;2022-10-17T06:54:46;15.70;99.90
25250;DHT22;13201;51.148;13.738;2022-10-17T06:57:12;15.70;99.90
25250;DHT22;13201;51.148;13.738;2022-10-17T06:59:37;15.80;99.90
25250;DHT22;13201;51.148;13.738;2022-10-17T07:02:03;15.80;99.90
25250;DHT22;13201;51.148;13.738;2022-10-17T07:04:30;15.80;99.90
25250;DHT22;13201;51.148;13.738;2022-10-17T07:06:55;15.90;99.90
25250;DHT22;13201;51.148;13.738;2022-10-17T07:09:21;16.00;99.90
25250;DHT22;13201;51.148;13.738;2022-10-17T07:11:47;16.00;99.90
25250;DHT22;13201;51.148;13.738;2022-10-17T07:14:13;16.10;99.90
25250;DHT22;13201;51.148;13.738;2022-10-17T07:16:38;16.10;99.90
25250;DHT22;13201;51.148;13.738;2022-10-17T07:19:04;16.20;99.90
25250;DHT22;13201;51.148;13.738;2022-10-17T07:21:30;16.20;99.90
25250;DHT22;13201;51.148;13.738;2022-10-17T07:23:55;16.30;99.90
25250;DHT22;13201;51.148;13.738;2022-10-17T07:26:21;16.40;99.90
25250;DHT22;13201;51.148;13.738;2022-10-17T07:28:51;16.40;99.90
25250;DHT22;13201;51.148;13.738;2022-10-17T07:31:18;16.50;99.90
25250;DHT22;13201;51.148;13.738;2022-10-17T07:33:44;16.60;99.90
25250;DHT22;13201;51.148;13.738;2022-10-17T07:36:10;16.60;99.90
25250;DHT22;13201;51.148;13.738;2022-10-17T07:38:36;16.70;99.90
25250;DHT22;13201;51.148;13.738;2022-10-17T07:41:04;16.80;99.90
25250;DHT22;13201;51.148;13.738;2022-10-17T07:43:31;16.90;99.90
25250;DHT22;13201;51.148;13.738;2022-10-17T07:45:57;16.90;99.90
25250;DHT22;13201;51.148;13.738;2022-10-17T07:48:23;17.00;99.90
25250;DHT22;13201;51.148;13.738;2022-10-17T07:50:49;17.00;99.90
25250;DHT22;13201;51.148;13.738;2022-10-17T07:53:15;17.10;99.90
25250;DHT22;13201;51.148;13.738;2022-10-17T07:55:42;17.10;99.90
25250;DHT22;13201;51.148;13.738;2022-10-17T07:58:09;17.20;99.90
25250;DHT22;13201;51.148;13.738;2022-10-17T08:00:35;17.30;99.90
25250;DHT22;13201;51.148;13.738;2022-10-17T08:03:02;17.40;99.90
25250;DHT22;13201;51.148;13.738;2022-10-17T08:05:28;17.50;99.90
25250;DHT22;13201;51.148;13.738;2022-10-17T08:07:54;17.50;99.90
25250;DHT22;13201;51.148;13.738;2022-10-17T08:10:20;17.60;99.90
25250;DHT22;13201;51.148;13.738;2022-10-17T08:12:47;17.70;99.90
25250;DHT22;13201;51.148;13.738;2022-10-17T08:15:13;17.80;99.90
25250;DHT22;13201;51.148;13.738;2022-10-17T08:17:39;17.80;99.90
25250;DHT22;13201;51.148;13.738;2022-10-17T08:20:05;17.90;99.90
25250;DHT22;13201;51.148;13.738;2022-10-17T08:22:31;18.00;99.90
25250;DHT22;13201;51.148;13.738;2022-10-17T08:24:57;18.10;99.90
25250;DHT22;13201;51.148;13.738;2022-10-17T08:27:23;18.20;99.90
25250;DHT22;13201;51.148;13.738;2022-10-17T08:29:50;18.30;99.90
25250;DHT22;13201;51.148;13.738;2022-10-17T08:32:25;18.30;99.90
25250;DHT22;13201;51.148;13.738;2022-10-17T08:34:52;18.40;99.90
25250;DHT22;13201;51.148;13.738;2022-10-17T08:37:18;18.40;99.90
25250;DHT22;13201;51.148;13.738;2022-10-17T08:39:44;18.40;99.90
25250;DHT22;13201;51.148;13.738;2022-10-17T08:48:10;18.70;99.90
25250;DHT22;13201;51.148;13.738;2022-10-17T08:50:52;18.90;99.90
25250;DHT22;13201;51.148;13.738;2022-10-17T08:53:45;19.00;99.90
25250;DHT22;13201;51.148;13.738;2022-10-17T08:56:25;19.20;99.90
25250;DHT22;13201;51.148;13.738;2022-10-17T08:58:52;19.20;99.90
25250;DHT22;13201;51.148;13.738;2022-10-17T09:01:40;19.40;99.90
25250;DHT22;13201;51.148;13.738;2022-10-17T09:04:13;19.50;99.90
25250;DHT22;13201;51.148;13.738;2022-10-17T09:23:50;19.90;99.90
25250;DHT22;13201;51.148;13.738;2022-10-17T09:26:17;20.00;99.90
25250;DHT22;13201;51.148;13.738;2022-10-17T09:28:43;20.00;99.90
25250;DHT22;13201;51.148;13.738;2022-10-17T09:31:22;20.10;99.90
25250;DHT22;13201;51.148;13.738;2022-10-17T09:33:50;20.10;99.90
25250;DHT22;13201;51.148;13.738;2022-10-17T09:36:29;20.20;99.90
25250;DHT22;13201;51.148;13.738;2022-10-17T09:39:00;20.30;99.90
25250;DHT22;13201;51.148;13.738;2022-10-17T09:41:35;20.20;99.90
25250;DHT22;13201;51.148;13.738;2022-10-17T09:47:23;20.30;99.90
25250;DHT22;13201;51.148;13.738;2022-10-17T09:49:50;20.50;99.90
25250;DHT22;13201;51.148;13.738;2022-10-17T09:52:19;20.40;99.90
25250;DHT22;13201;51.148;13.738;2022-10-17T09:54:58;20.40;99.90
25250;DHT22;13201;51.148;13.738;2022-10-17T09:57:24;20.50;99.90
25250;DHT22;13201;51.148;13.738;2022-10-17T10:00:05;20.50;99.90
25250;DHT22;13201;51.148;13.738;2022-10-17T10:02:31;20.60;99.90
25250;DHT22;13201;51.148;13.738;2022-10-17T10:05:02;20.70;99.90
25250;DHT22;13201;51.148;13.738;2022-10-17T10:07:34;20.80;99.90
25250;DHT22;13201;51.148;13.738;2022-10-17T10:10:00;21.00;99.90
25250;DHT22;13201;51.148;13.738;2022-10-17T10:12:30;21.00;99.90
25250;DHT22;13201;51.148;13.738;2022-10-17T10:14:56;21.10;99.90
25250;DHT22;13201;51.148;13.738;2022-10-17T10:17:33;21.30;99.90
25250;DHT22;13201;51.148;13.738;2022-10-17T10:19:59;21.40;99.90
25250;DHT22;13201;51.148;13.738;2022-10-17T10:22:25;21.50;99.90
25250;DHT22;13201;51.148;13.738;2022-10-17T10:27:32;21.70;99.90
25250;DHT22;13201;51.148;13.738;2022-10-17T10:29:57;21.80;99.90
25250;DHT22;13201;51.148;13.738;2022-10-17T10:32:29;21.80;99.90
25250;DHT22;13201;51.148;13.738;2022-10-17T10:35:02;22.00;99.90
25250;DHT22;13201;51.148;13.738;2022-10-17T10:37:38;22.00;99.90
25250;DHT22;13201;51.148;13.738;2022-10-17T10:40:48;22.10;99.90
25250;DHT22;13201;51.148;13.738;2022-10-17T10:43:41;22.20;99.90
25250;DHT22;13201;51.148;13.738;2022-10-17T10:46:22;22.30;99.90
25250;DHT22;13201;51.148;13.738;2022-10-17T10:48:59;22.40;99.90
25250;DHT22;13201;51.148;13.738;2022-10-17T10:54:12;22.80;99.90
25250;DHT22;13201;51.148;13.738;2022-10-17T10:56:45;22.90;99.90
25250;DHT22;13201;51.148;13.738;2022-10-17T11:01:59;23.00;99.90
25250;DHT22;13201;51.148;13.738;2022-10-17T11:07:22;23.30;99.90
25250;DHT22;13201;51.148;13.738;2022-10-17T11:09:52;23.30;99.90
25250;DHT22;13201;51.148;13.738;2022-10-17T11:12:38;23.40;99.90
25250;DHT22;13201;51.148;13.738;2022-10-17T11:17:39;23.60;99.90
25250;DHT22;13201;51.148;13.738;2022-10-17T11:20:24;23.60;99.90
25250;DHT22;13201;51.148;13.738;2022-10-17T11:23:03;23.60;99.90
25250;DHT22;13201;51.148;13.738;2022-10-17T11:25:38;23.70;99.90
25250;DHT22;13201;51.148;13.738;2022-10-17T11:28:19;23.90;99.90
25250;DHT22;13201;51.148;13.738;2022-10-17T11:33:19;24.10;99.90
25250;DHT22;13201;51.148;13.738;2022-10-17T11:35:47;24.10;99.90
25250;DHT22;13201;51.148;13.738;2022-10-17T11:38:25;24.20;99.90
25250;DHT22;13201;51.148;13.738;2022-10-17T11:40:56;24.10;99.90
25250;DHT22;13201;51.148;13.738;2022-10-17T11:45:58;24.00;99.90
25250;DHT22;13201;51.148;13.738;2022-10-17T11:48:35;24.10;99.90
25250;DHT22;13201;51.148;13.738;2022-10-17T11:51:08;24.30;99.90
25250;DHT22;13201;51.148;13.738;2022-10-17T11:53:52;24.50;99.90
25250;DHT22;13201;51.148;13.738;2022-10-17T12:02:06;25.00;99.90
25250;DHT22;13201;51.148;13.738;2022-10-17T12:07:47;25.20;99.90
25250;DHT22;13201;51.148;13.738;2022-10-17T12:10:33;25.40;99.90
25250;DHT22;13201;51.148;13.738;2022-10-17T12:14:02;25.60;99.90
25250;DHT22;13201;51.148;13.738;2022-10-17T12:18:45;26.10;99.90
25250;DHT22;13201;51.148;13.738;2022-10-17T12:21:11;25.80;99.90
25250;DHT22;13201;51.148;13.738;2022-10-17T12:23:37;26.10;99.90
25250;DHT22;13201;51.148;13.738;2022-10-17T12:26:06;26.30;99.90
25250;DHT22;13201;51.148;13.738;2022-10-17T12:28:41;26.30;99.90
25250;DHT22;13201;51.148;13.738;2022-10-17T12:34:00;26.40;99.90
25250;DHT22;13201;51.148;13.738;2022-10-17T12:49:48;26.50;99.90
25250;DHT22;13201;51.148;13.738;2022-10-17T12:54:41;26.90;99.90
25250;DHT22;13201;51.148;13.738;2022-10-17T13:03:19;26.90;99.90
25250;DHT22;13201;51.148;13.738;2022-10-17T13:05:54;27.00;99.90
25250;DHT22;13201;51.148;13.738;2022-10-17T13:08:27;26.90;99.90
25250;DHT22;13201;51.148;13.738;2022-10-17T13:10:54;26.60;99.90
25250;DHT22;13201;51.148;13.738;2022-10-17T13:13:57;26.40;99.90
25250;DHT22;13201;51.148;13.738;2022-10-17T13:16:33;26.00;99.90
25250;DHT22;13201;51.148;13.738;2022-10-17T13:19:01;26.00;99.90
25250;DHT22;13201;51.148;13.738;2022-10-17T13:21:28;26.10;99.90
25250;DHT22;13201;51.148;13.738;2022-10-17T13:23:54;25.90;99.90
25250;DHT22;13201;51.148;13.738;2022-10-17T13:26:25;25.60;99.90
25250;DHT22;13201;51.148;13.738;2022-10-17T13:29:10;25.70;99.90
25250;DHT22;13201;51.148;13.738;2022-10-17T13:31:39;25.90;99.90
25250;DHT22;13201;51.148;13.738;2022-10-17T13:34:16;25.70;99.90
25250;DHT22;13201;51.148;13.738;2022-10-17T13:36:44;26.00;99.90
25250;DHT22;13201;51.148;13.738;2022-10-17T13:39:14;26.10;99.90
25250;DHT22;13201;51.148;13.738;2022-10-17T13:41:41;25.80;99.90
25250;DHT22;13201;51.148;13.738;2022-10-17T13:44:14;25.70;99.90
25250;DHT22;13201;51.148;13.738;2022-10-17T13:46:41;25.70;99.90
25250;DHT22;13201;51.148;13.738;2022-10-17T13:51:47;25.50;99.90
25250;DHT22;13201;51.148;13.738;2022-10-17T13:54:18;25.80;99.90
25250;DHT22;13201;51.148;13.738;2022-10-17T13:56:43;26.00;99.90
25250;DHT22;13201;51.148;13.738;2022-10-17T13:59:22;25.90;99.90
25250;DHT22;13201;51.148;13.738;2022-10-17T14:01:48;26.00;99.90
25250;DHT22;13201;51.148;13.738;2022-10-17T14:04:14;26.10;99.90
25250;DHT22;13201;51.148;13.738;2022-10-17T14:06:44;25.80;99.90
25250;DHT22;13201;51.148;13.738;2022-10-17T14:09:24;25.70;99.90
25250;DHT22;13201;51.148;13.738;2022-10-17T14:12:08;25.70;99.90
25250;DHT22;13201;51.148;13.738;2022-10-17T14:14:35;25.50;99.90
25250;DHT22;13201;51.148;13.738;2022-10-17T14:17:02;25.40;99.90
25250;DHT22;13201;51.148;13.738;2022-10-17T14:19:32;25.20;99.90
25250;DHT22;13201;51.148;13.738;2022-10-17T14:24:48;24.90;99.90
25250;DHT22;13201;51.148;13.738;2022-10-17T14:27:31;24.50;99.90
25250;DHT22;13201;51.148;13.738;2022-10-17T14:30:01;24.20;99.90
25250;DHT22;13201;51.148;13.738;2022-10-17T14:32:33;24.20;99.90
25250;DHT22;13201;51.148;13.738;2022-10-17T14:35:01;23.80;99.90
25250;DHT22;13201;51.148;13.738;2022-10-17T14:37:41;23.60;99.90
25250;DHT22;13201;51.148;13.738;2022-10-17T14:40:19;23.50;99.90
25250;DHT22;13201;51.148;13.738;2022-10-17T14:42:46;23.20;99.90
25250;DHT22;13201;51.148;13.738;2022-10-17T14:45:25;23.10;99.90
25250;DHT22;13201;51.148;13.738;2022-10-17T14:47:53;23.20;99.90
25250;DHT22;13201;51.148;13.738;2022-10-17T14:50:25;23.10;99.90
25250;DHT22;13201;51.148;13.738;2022-10-17T14:53:05;23.10;99.90
25250;DHT22;13201;51.148;13.738;2022-10-17T14:55:33;23.10;99.90
25250;DHT22;13201;51.148;13.738;2022-10-17T14:57:59;23.00;99.90
25250;DHT22;13201;51.148;13.738;2022-10-17T15:00:25;23.10;99.90
25250;DHT22;13201;51.148;13.738;2022-10-17T15:02:53;23.00;99.90
25250;DHT22;13201;51.148;13.738;2022-10-17T15:05:19;23.00;99.90
25250;DHT22;13201;51.148;13.738;2022-10-17T15:07:45;23.00;99.90
25250;DHT22;13201;51.148;13.738;2022-10-17T15:10:31;22.90;99.90
25250;DHT22;13201;51.148;13.738;2022-10-17T15:12:57;22.90;99.90
25250;DHT22;13201;51.148;13.738;2022-10-17T15:15:28;22.90;99.90
25250;DHT22;13201;51.148;13.738;2022-10-17T15:17:54;22.80;99.90
25250;DHT22;13201;51.148;13.738;2022-10-17T15:20:20;22.90;99.90
25250;DHT22;13201;51.148;13.738;2022-10-17T15:22:53;22.60;99.90
25250;DHT22;13201;51.148;13.738;2022-10-17T15:25:19;22.60;99.90
25250;DHT22;13201;51.148;13.738;2022-10-17T15:27:45;22.50;99.90
25250;DHT22;13201;51.148;13.738;2022-10-17T15:32:44;22.40;99.90
25250;DHT22;13201;51.148;13.738;2022-10-17T15:35:09;22.30;99.90
25250;DHT22;13201;51.148;13.738;2022-10-17T15:37:35;22.30;99.90
25250;DHT22;13201;51.148;13.738;2022-10-17T15:40:00;22.00;99.90
25250;DHT22;13201;51.148;13.738;2022-10-17T15:42:29;21.90;99.90
25250;DHT22;13201;51.148;13.738;2022-10-17T15:44:56;21.70;99.90
25250;DHT22;13201;51.148;13.738;2022-10-17T15:49:50;21.40;99.90
25250;DHT22;13201;51.148;13.738;2022-10-17T15:52:16;21.20;99.90
25250;DHT22;13201;51.148;13.738;2022-10-17T15:54:42;21.10;99.90
25250;DHT22;13201;51.148;13.738;2022-10-17T15:57:26;20.90;99.90
25250;DHT22;13201;51.148;13.738;2022-10-17T15:59:53;20.90;99.90
25250;DHT22;13201;51.148;13.738;2022-10-17T16:02:21;20.80;99.90
25250;DHT22;13201;51.148;13.738;2022-10-17T16:04:48;20.80;99.90
25250;DHT22;13201;51.148;13.738;2022-10-17T16:07:15;20.70;99.90
25250;DHT22;13201;51.148;13.738;2022-10-17T16:09:40;20.60;99.90
25250;DHT22;13201;51.148;13.738;2022-10-17T16:12:12;20.60;99.90
25250;DHT22;13201;51.148;13.738;2022-10-17T16:14:39;20.40;99.90
25250;DHT22;13201;51.148;13.738;2022-10-17T16:17:04;20.50;99.90
25250;DHT22;13201;51.148;13.738;2022-10-17T16:19:30;20.40;99.90
25250;DHT22;13201;51.148;13.738;2022-10-17T16:21:59;20.50;99.90
25250;DHT22;13201;51.148;13.738;2022-10-17T16:24:26;20.40;99.90
25250;DHT22;13201;51.148;13.738;2022-10-17T16:26:51;20.50;99.90
25250;DHT22;13201;51.148;13.738;2022-10-17T16:29:17;20.50;99.90
25250;DHT22;13201;51.148;13.738;2022-10-17T16:31:44;20.20;99.90
25250;DHT22;13201;51.148;13.738;2022-10-17T16:34:12;20.10;99.90
25250;DHT22;13201;51.148;13.738;2022-10-17T16:36:38;20.00;99.90
25250;DHT22;13201;51.148;13.738;2022-10-17T16:39:04;19.90;99.90
25250;DHT22;13201;51.148;13.738;2022-10-17T16:41:35;19.90;99.90
25250;DHT22;13201;51.148;13.738;2022-10-17T16:44:05;19.80;99.90
25250;DHT22;13201;51.148;13.738;2022-10-17T16:46:32;19.80;99.90
25250;DHT22;13201;51.148;13.738;2022-10-17T16:48:58;19.80;99.90
25250;DHT22;13201;51.148;13.738;2022-10-17T16:51:24;19.80;99.90
25250;DHT22;13201;51.148;13.738;2022-10-17T16:53:50;19.80;99.90
25250;DHT22;13201;51.148;13.738;2022-10-17T16:56:20;19.90;99.90
25250;DHT22;13201;51.148;13.738;2022-10-17T16:58:47;19.70;99.90
25250;DHT22;13201;51.148;13.738;2022-10-17T17:01:17;19.70;99.90
25250;DHT22;13201;51.148;13.738;2022-10-17T17:03:45;19.70;99.90
25250;DHT22;13201;51.148;13.738;2022-10-17T17:06:13;19.60;99.90
25250;DHT22;13201;51.148;13.738;2022-10-17T17:08:41;19.50;99.90
25250;DHT22;13201;51.148;13.738;2022-10-17T17:11:08;19.50;99.90
25250;DHT22;13201;51.148;13.738;2022-10-17T17:13:34;19.50;99.90
25250;DHT22;13201;51.148;13.738;2022-10-17T17:16:25;19.40;99.90
25250;DHT22;13201;51.148;13.738;2022-10-17T17:18:57;19.40;99.90
25250;DHT22;13201;51.148;13.738;2022-10-17T17:21:24;19.40;99.90
25250;DHT22;13201;51.148;13.738;2022-10-17T17:23:51;19.40;99.90
25250;DHT22;13201;51.148;13.738;2022-10-17T17:26:20;19.30;99.90
25250;DHT22;13201;51.148;13.738;2022-10-17T17:28:46;19.30;99.90
25250;DHT22;13201;51.148;13.738;2022-10-17T17:31:17;19.20;99.90
25250;DHT22;13201;51.148;13.738;2022-10-17T17:33:43;19.10;99.90
25250;DHT22;13201;51.148;13.738;2022-10-17T17:36:13;19.20;99.90
25250;DHT22;13201;51.148;13.738;2022-10-17T17:38:41;19.20;99.90
25250;DHT22;13201;51.148;13.738;2022-10-17T17:41:11;19.20;99.90